createdAt,value
2023-05-14T00:00:43.809Z,0.00
2023-05-14T00:01:43.877Z,0.00
2023-05-14T00:02:43.877Z,0.00
2023-05-14T00:03:43.992Z,0.00
2023-05-14T00:04:43.801Z,0.00
2023-05-14T00:05:43.785Z,0.00
2023-05-14T00:06:43.747Z,0.00
2023-05-14T00:07:43.760Z,0.00
2023-05-14T00:08:43.855Z,0.00
2023-05-14T00:09:43.736Z,0.00
2023-05-14T00:10:43.707Z,0.00
2023-05-14T00:11:43.750Z,0.00
2023-05-14T00:12:43.679Z,0.00
2023-05-14T00:13:43.684Z,0.00
2023-05-14T00:14:43.716Z,0.00
2023-05-14T00:15:43.711Z,0.00
2023-05-14T00:16:43.658Z,0.00
2023-05-14T00:17:43.697Z,0.00
2023-05-14T00:18:43.669Z,0.00
2023-05-14T00:19:43.643Z,0.00
2023-05-14T00:20:43.606Z,0.00
2023-05-14T00:21:43.596Z,0.00
2023-05-14T00:22:43.586Z,0.00
2023-05-14T00:23:43.599Z,0.00
2023-05-14T00:24:43.583Z,0.00
2023-05-14T00:25:43.567Z,0.00
2023-05-14T00:26:43.542Z,0.00
2023-05-14T00:27:43.533Z,0.00
2023-05-14T00:28:43.517Z,0.00
2023-05-14T00:29:43.558Z,0.00
2023-05-14T00:30:43.552Z,0.00
2023-05-14T00:31:43.607Z,0.00
2023-05-14T00:32:43.516Z,0.00
2023-05-14T00:33:43.459Z,0.00
2023-05-14T00:34:43.453Z,0.00
2023-05-14T00:35:43.476Z,0.00
2023-05-14T00:36:43.537Z,0.00
2023-05-14T00:37:43.439Z,0.00
2023-05-14T00:38:43.432Z,0.00
2023-05-14T00:39:43.417Z,0.00
2023-05-14T00:40:43.405Z,0.00
2023-05-14T00:41:43.431Z,0.00
2023-05-14T00:42:43.371Z,0.00
2023-05-14T00:43:43.361Z,0.00
2023-05-14T00:44:43.343Z,0.00
2023-05-14T00:45:43.337Z,0.00
2023-05-14T00:46:43.370Z,0.00
2023-05-14T00:47:43.350Z,0.00
2023-05-14T00:48:43.299Z,0.00
2023-05-14T00:49:43.299Z,0.00
2023-05-14T00:50:43.284Z,0.00
2023-05-14T00:51:43.274Z,0.00
2023-05-14T00:52:43.309Z,0.00
2023-05-14T00:53:43.281Z,0.00
2023-05-14T00:54:43.230Z,0.00
2023-05-14T00:55:43.240Z,0.00
2023-05-14T00:56:43.220Z,0.00
2023-05-14T00:57:43.212Z,0.00
2023-05-14T00:58:43.228Z,0.00
2023-05-14T00:59:43.185Z,0.00
2023-05-14T01:00:43.272Z,0.00
2023-05-14T01:01:43.230Z,0.00
2023-05-14T01:02:43.235Z,0.00
2023-05-14T01:03:43.342Z,0.00
2023-05-14T01:04:43.114Z,0.00
2023-05-14T01:05:43.140Z,0.00
2023-05-14T01:06:43.114Z,0.00
2023-05-14T01:07:43.097Z,0.00
2023-05-14T01:08:43.079Z,0.00
2023-05-14T01:09:43.132Z,0.00
2023-05-14T01:10:43.053Z,0.00
2023-05-14T01:11:43.055Z,0.00
2023-05-14T01:12:43.038Z,0.00
2023-05-14T01:13:43.020Z,0.00
2023-05-14T01:14:43.031Z,0.00
2023-05-14T01:15:43.032Z,0.00
2023-05-14T01:16:43.023Z,0.00
2023-05-14T01:17:43.026Z,0.00
2023-05-14T01:18:43.006Z,0.00
2023-05-14T01:19:43.016Z,0.00
2023-05-14T01:20:42.957Z,0.00
2023-05-14T01:21:42.967Z,0.00
2023-05-14T01:22:42.932Z,0.00
2023-05-14T01:23:42.943Z,0.00
2023-05-14T01:24:42.949Z,0.00
2023-05-14T01:25:42.925Z,0.00
2023-05-14T01:26:42.906Z,0.00
2023-05-14T01:27:42.926Z,0.00
2023-05-14T01:28:42.850Z,0.00
2023-05-14T01:29:42.864Z,0.00
2023-05-14T01:30:42.884Z,0.00
2023-05-14T01:31:42.957Z,0.00
2023-05-14T01:32:42.843Z,0.00
2023-05-14T01:33:42.812Z,0.00
2023-05-14T01:34:42.800Z,0.00
2023-05-14T01:35:42.796Z,0.00
2023-05-14T01:36:42.775Z,0.00
2023-05-14T01:37:43.341Z,0.00
2023-05-14T01:38:42.750Z,0.00
2023-05-14T01:39:42.756Z,0.00
2023-05-14T01:40:42.749Z,0.00
2023-05-14T01:41:42.721Z,0.00
2023-05-14T01:42:42.723Z,0.00
2023-05-14T01:43:42.716Z,0.00
2023-05-14T01:44:42.688Z,0.00
2023-05-14T01:45:42.717Z,0.00
2023-05-14T01:46:42.755Z,0.00
2023-05-14T01:47:42.738Z,0.00
2023-05-14T01:48:42.635Z,0.00
2023-05-14T01:49:42.643Z,0.00
2023-05-14T01:50:42.644Z,0.00
2023-05-14T01:51:42.646Z,0.00
2023-05-14T01:52:42.594Z,0.00
2023-05-14T01:53:42.599Z,0.00
2023-05-14T01:54:42.577Z,0.00
2023-05-14T01:55:42.589Z,0.00
2023-05-14T01:56:42.579Z,0.00
2023-05-14T01:57:42.548Z,0.00
2023-05-14T01:58:42.547Z,0.00
2023-05-14T01:59:42.548Z,0.00
2023-05-14T02:00:42.516Z,0.00
2023-05-14T02:01:42.582Z,0.00
2023-05-14T02:02:42.546Z,0.00
2023-05-14T02:03:42.544Z,0.00
2023-05-14T02:04:42.468Z,0.00
2023-05-14T02:05:42.460Z,0.00
2023-05-14T02:06:42.452Z,0.00
2023-05-14T02:07:42.445Z,0.00
2023-05-14T02:08:42.910Z,0.00
2023-05-14T02:09:42.426Z,0.00
2023-05-14T02:10:42.390Z,0.00
2023-05-14T02:11:42.414Z,0.00
2023-05-14T02:12:42.379Z,0.00
2023-05-14T02:13:42.397Z,0.00
2023-05-14T02:14:42.384Z,0.00
2023-05-14T02:15:42.470Z,0.00
2023-05-14T02:16:42.339Z,0.00
2023-05-14T02:17:42.376Z,0.00
2023-05-14T02:18:42.334Z,0.00
2023-05-14T02:19:42.325Z,0.00
2023-05-14T02:20:42.375Z,0.00
2023-05-14T02:21:42.285Z,0.00
2023-05-14T02:22:42.330Z,0.00
2023-05-14T02:23:42.384Z,0.00
2023-05-14T02:24:42.267Z,0.00
2023-05-14T02:25:42.260Z,0.00
2023-05-14T02:26:42.267Z,0.00
2023-05-14T02:27:42.228Z,0.00
2023-05-14T02:28:42.213Z,0.00
2023-05-14T02:29:42.213Z,0.00
2023-05-14T02:30:42.222Z,0.00
2023-05-14T02:31:42.213Z,0.00
2023-05-14T02:32:42.236Z,0.00
2023-05-14T02:33:42.237Z,0.00
2023-05-14T02:34:42.151Z,0.00
2023-05-14T02:35:42.144Z,0.00
2023-05-14T02:36:42.134Z,0.00
2023-05-14T02:37:42.135Z,0.00
2023-05-14T02:38:42.131Z,0.00
2023-05-14T02:39:42.107Z,0.00
2023-05-14T02:40:42.108Z,0.00
2023-05-14T02:41:42.080Z,0.00
2023-05-14T02:42:42.060Z,0.00
2023-05-14T02:43:42.079Z,0.00
2023-05-14T02:44:42.049Z,0.00
2023-05-14T02:45:42.040Z,0.00
2023-05-14T02:46:42.054Z,0.00
2023-05-14T02:47:42.055Z,0.00
2023-05-14T02:48:42.024Z,0.00
2023-05-14T02:49:41.999Z,0.00
2023-05-14T02:50:41.997Z,0.00
2023-05-14T02:51:42.000Z,0.00
2023-05-14T02:52:41.963Z,0.00
2023-05-14T02:53:41.959Z,0.00
2023-05-14T02:54:41.941Z,0.00
2023-05-14T02:55:41.936Z,0.00
2023-05-14T02:56:41.923Z,0.00
2023-05-14T02:57:41.910Z,0.00
2023-05-14T02:58:41.889Z,0.00
2023-05-14T02:59:41.893Z,0.00
2023-05-14T03:00:41.908Z,0.00
2023-05-14T03:01:41.858Z,0.00
2023-05-14T03:02:42.009Z,0.00
2023-05-14T03:03:41.808Z,0.00
2023-05-14T03:04:41.823Z,0.00
2023-05-14T03:05:41.823Z,0.00
2023-05-14T03:06:41.857Z,0.00
2023-05-14T03:07:41.851Z,0.00
2023-05-14T03:08:48.283Z,0.00
2023-05-14T03:09:41.745Z,0.00
2023-05-14T03:10:41.761Z,0.00
2023-05-14T03:11:41.780Z,0.00
2023-05-14T03:12:41.738Z,0.00
2023-05-14T03:13:41.720Z,0.00
2023-05-14T03:14:41.682Z,0.00
2023-05-14T03:15:41.662Z,0.00
2023-05-14T03:16:41.734Z,0.00
2023-05-14T03:17:41.736Z,0.00
2023-05-14T03:18:41.630Z,0.00
2023-05-14T03:19:41.636Z,0.00
2023-05-14T03:20:41.642Z,0.00
2023-05-14T03:21:41.603Z,0.00
2023-05-14T03:22:41.592Z,0.00
2023-05-14T03:23:41.672Z,0.00
2023-05-14T03:24:41.555Z,0.00
2023-05-14T03:25:41.565Z,0.00
2023-05-14T03:26:41.532Z,0.00
2023-05-14T03:27:41.557Z,0.00
2023-05-14T03:28:41.518Z,0.00
2023-05-14T03:29:41.595Z,0.00
2023-05-14T03:30:41.541Z,0.00
2023-05-14T03:31:41.505Z,0.00
2023-05-14T03:32:41.536Z,0.00
2023-05-14T03:33:41.510Z,0.00
2023-05-14T03:34:41.472Z,0.00
2023-05-14T03:35:41.440Z,0.00
2023-05-14T03:36:41.438Z,0.00
2023-05-14T03:37:41.431Z,0.00
2023-05-14T03:38:41.463Z,0.00
2023-05-14T03:39:41.393Z,0.00
2023-05-14T03:40:41.466Z,0.00
2023-05-14T03:41:41.381Z,0.00
2023-05-14T03:42:41.399Z,0.00
2023-05-14T03:43:41.366Z,0.00
2023-05-14T03:44:41.360Z,0.00
2023-05-14T03:45:41.345Z,0.00
2023-05-14T03:46:41.327Z,0.00
2023-05-14T03:47:41.403Z,0.00
2023-05-14T03:48:41.334Z,0.00
2023-05-14T03:49:41.302Z,0.00
2023-05-14T03:50:41.314Z,0.00
2023-05-14T03:51:41.274Z,0.00
2023-05-14T03:52:41.307Z,0.00
2023-05-14T03:53:41.296Z,0.00
2023-05-14T03:54:41.275Z,0.00
2023-05-14T03:55:41.225Z,0.00
2023-05-14T03:56:41.228Z,0.00
2023-05-14T03:57:41.203Z,0.00
2023-05-14T03:58:41.211Z,0.00
2023-05-14T03:59:41.215Z,0.00
2023-05-14T04:00:41.182Z,5.62
2023-05-14T04:01:41.162Z,5.62
2023-05-14T04:02:41.255Z,5.62
2023-05-14T04:03:41.304Z,5.62
2023-05-14T04:04:41.228Z,5.62
2023-05-14T04:05:41.125Z,5.62
2023-05-14T04:06:41.125Z,5.62
2023-05-14T04:07:41.120Z,5.62
2023-05-14T04:08:41.085Z,5.62
2023-05-14T04:09:41.089Z,5.62
2023-05-14T04:10:41.093Z,5.62
2023-05-14T04:11:41.072Z,5.62
2023-05-14T04:12:41.082Z,5.62
2023-05-14T04:13:41.036Z,5.62
2023-05-14T04:14:41.050Z,5.62
2023-05-14T04:15:41.016Z,5.62
2023-05-14T04:16:41.064Z,5.62
2023-05-14T04:17:41.000Z,5.62
2023-05-14T04:18:41.049Z,5.62
2023-05-14T04:19:40.965Z,5.62
2023-05-14T04:20:40.965Z,5.62
2023-05-14T04:21:40.962Z,11.25
2023-05-14T04:22:41.000Z,11.25
2023-05-14T04:23:40.922Z,11.25
2023-05-14T04:24:40.967Z,11.25
2023-05-14T04:25:40.991Z,11.25
2023-05-14T04:26:40.904Z,11.25
2023-05-14T04:27:40.891Z,11.25
2023-05-14T04:28:40.917Z,11.25
2023-05-14T04:29:40.854Z,11.25
2023-05-14T04:30:40.883Z,11.25
2023-05-14T04:31:40.901Z,11.25
2023-05-14T04:32:40.890Z,11.25
2023-05-14T04:33:40.819Z,11.25
2023-05-14T04:34:40.807Z,11.25
2023-05-14T04:35:40.804Z,11.25
2023-05-14T04:36:40.811Z,11.25
2023-05-14T04:37:40.786Z,11.25
2023-05-14T04:38:40.959Z,11.25
2023-05-14T04:39:40.805Z,11.25
2023-05-14T04:40:40.753Z,11.25
2023-05-14T04:41:40.732Z,11.25
2023-05-14T04:42:40.724Z,11.25
2023-05-14T04:43:40.717Z,11.25
2023-05-14T04:44:40.752Z,11.25
2023-05-14T04:45:40.746Z,11.25
2023-05-14T04:46:40.775Z,11.25
2023-05-14T04:47:40.661Z,11.25
2023-05-14T04:48:40.666Z,11.25
2023-05-14T04:49:40.631Z,11.25
2023-05-14T04:50:40.692Z,11.25
2023-05-14T04:51:40.634Z,16.88
2023-05-14T04:52:40.643Z,16.88
2023-05-14T04:53:40.592Z,16.88
2023-05-14T04:54:40.687Z,16.88
2023-05-14T04:55:40.613Z,16.88
2023-05-14T04:56:40.571Z,16.88
2023-05-14T04:57:40.550Z,16.88
2023-05-14T04:58:40.567Z,22.50
2023-05-14T04:59:40.562Z,22.50
2023-05-14T05:00:40.532Z,22.50
2023-05-14T05:01:40.606Z,22.50
2023-05-14T05:02:40.542Z,22.50
2023-05-14T05:03:40.518Z,28.12
2023-05-14T05:04:40.548Z,28.12
2023-05-14T05:05:40.468Z,28.12
2023-05-14T05:06:40.466Z,28.12
2023-05-14T05:07:40.463Z,28.12
2023-05-14T05:08:40.436Z,28.12
2023-05-14T05:09:40.446Z,28.12
2023-05-14T05:10:40.425Z,28.12
2023-05-14T05:11:40.431Z,28.12
2023-05-14T05:12:40.407Z,28.12
2023-05-14T05:13:40.383Z,33.75
2023-05-14T05:14:40.399Z,33.75
2023-05-14T05:15:40.377Z,33.75
2023-05-14T05:16:40.373Z,33.75
2023-05-14T05:17:40.385Z,33.75
2023-05-14T05:18:40.480Z,33.75
2023-05-14T05:19:44.319Z,33.75
2023-05-14T05:20:40.347Z,33.75
2023-05-14T05:21:40.340Z,33.75
2023-05-14T05:22:40.313Z,33.75
2023-05-14T05:23:40.306Z,33.75
2023-05-14T05:24:40.276Z,39.38
2023-05-14T05:25:40.254Z,39.38
2023-05-14T05:26:40.252Z,39.38
2023-05-14T05:27:40.288Z,39.38
2023-05-14T05:28:40.250Z,39.38
2023-05-14T05:29:40.240Z,39.38
2023-05-14T05:30:40.240Z,39.38
2023-05-14T05:31:40.276Z,39.38
2023-05-14T05:32:40.273Z,39.38
2023-05-14T05:33:40.225Z,39.38
2023-05-14T05:34:40.229Z,39.38
2023-05-14T05:35:40.152Z,33.75
2023-05-14T05:36:40.162Z,28.12
2023-05-14T05:37:40.179Z,28.12
2023-05-14T05:38:40.125Z,33.75
2023-05-14T05:39:40.178Z,39.38
2023-05-14T05:40:40.155Z,39.38
2023-05-14T05:41:40.096Z,45.00
2023-05-14T05:42:40.081Z,45.00
2023-05-14T05:43:40.131Z,39.38
2023-05-14T05:44:40.093Z,28.12
2023-05-14T05:45:40.046Z,28.12
2023-05-14T05:46:40.074Z,28.12
2023-05-14T05:47:40.084Z,28.12
2023-05-14T05:48:40.093Z,28.12
2023-05-14T05:49:40.002Z,28.12
2023-05-14T05:50:40.059Z,28.12
2023-05-14T05:51:40.049Z,28.12
2023-05-14T05:52:39.981Z,39.38
2023-05-14T05:53:39.975Z,45.00
2023-05-14T05:54:40.023Z,45.00
2023-05-14T05:55:39.951Z,45.00
2023-05-14T05:56:40.038Z,45.00
2023-05-14T05:57:39.918Z,45.00
2023-05-14T05:58:39.946Z,45.00
2023-05-14T05:59:39.917Z,45.00
2023-05-14T06:00:39.936Z,45.00
2023-05-14T06:01:40.003Z,45.00
2023-05-14T06:02:39.923Z,45.00
2023-05-14T06:03:39.859Z,45.00
2023-05-14T06:04:39.867Z,45.00
2023-05-14T06:05:39.890Z,45.00
2023-05-14T06:06:39.894Z,39.38
2023-05-14T06:07:39.891Z,33.75
2023-05-14T06:08:39.856Z,33.75
2023-05-14T06:09:39.811Z,39.38
2023-05-14T06:10:39.796Z,45.00
2023-05-14T06:11:39.773Z,50.62
2023-05-14T06:12:41.044Z,50.62
2023-05-14T06:13:39.772Z,50.62
2023-05-14T06:14:46.004Z,50.62
2023-05-14T06:15:39.727Z,50.62
2023-05-14T06:16:39.816Z,50.62
2023-05-14T06:17:39.773Z,45.00
2023-05-14T06:18:39.793Z,50.62
2023-05-14T06:19:39.733Z,50.62
2023-05-14T06:20:39.684Z,56.25
2023-05-14T06:21:39.681Z,50.62
2023-05-14T06:22:39.694Z,56.25
2023-05-14T06:23:39.660Z,56.25
2023-05-14T06:24:39.629Z,50.62
2023-05-14T06:25:39.625Z,50.62
2023-05-14T06:26:39.637Z,45.00
2023-05-14T06:27:39.606Z,39.38
2023-05-14T06:28:39.642Z,56.25
2023-05-14T06:29:39.594Z,45.00
2023-05-14T06:30:39.586Z,39.38
2023-05-14T06:31:39.596Z,39.38
2023-05-14T06:32:39.593Z,45.00
2023-05-14T06:33:39.524Z,50.62
2023-05-14T06:34:39.532Z,50.62
2023-05-14T06:35:39.534Z,50.62
2023-05-14T06:36:39.514Z,50.62
2023-05-14T06:37:39.495Z,50.62
2023-05-14T06:38:39.481Z,61.88
2023-05-14T06:39:39.465Z,61.88
2023-05-14T06:40:39.468Z,61.88
2023-05-14T06:41:39.458Z,61.88
2023-05-14T06:42:39.443Z,61.88
2023-05-14T06:43:39.419Z,61.88
2023-05-14T06:44:39.413Z,61.88
2023-05-14T06:45:39.417Z,61.88
2023-05-14T06:46:39.414Z,67.50
2023-05-14T06:47:39.402Z,67.50
2023-05-14T06:48:39.432Z,67.50
2023-05-14T06:49:39.381Z,67.50
2023-05-14T06:50:39.417Z,67.50
2023-05-14T06:51:39.352Z,67.50
2023-05-14T06:52:39.331Z,67.50
2023-05-14T06:53:39.324Z,67.50
2023-05-14T06:54:39.384Z,67.50
2023-05-14T06:55:39.288Z,67.50
2023-05-14T06:56:39.304Z,67.50
2023-05-14T06:57:40.670Z,67.50
2023-05-14T06:58:39.280Z,67.50
2023-05-14T06:59:39.273Z,67.50
2023-05-14T07:00:39.256Z,67.50
2023-05-14T07:01:40.014Z,67.50
2023-05-14T07:02:39.276Z,73.12
2023-05-14T07:03:39.215Z,67.50
2023-05-14T07:04:39.284Z,67.50
2023-05-14T07:05:39.193Z,67.50
2023-05-14T07:06:39.199Z,67.50
2023-05-14T07:07:39.274Z,67.50
2023-05-14T07:08:39.166Z,67.50
2023-05-14T07:09:39.168Z,67.50
2023-05-14T07:10:39.160Z,67.50
2023-05-14T07:11:39.172Z,67.50
2023-05-14T07:12:39.167Z,67.50
2023-05-14T07:13:39.117Z,67.50
2023-05-14T07:14:39.099Z,67.50
2023-05-14T07:15:39.077Z,67.50
2023-05-14T07:16:39.119Z,73.12
2023-05-14T07:17:39.101Z,73.12
2023-05-14T07:18:39.111Z,73.12
2023-05-14T07:19:39.033Z,73.12
2023-05-14T07:20:39.035Z,73.12
2023-05-14T07:21:39.015Z,73.12
2023-05-14T07:22:39.017Z,73.12
2023-05-14T07:23:38.993Z,73.12
2023-05-14T07:24:39.011Z,73.12
2023-05-14T07:25:39.004Z,73.12
2023-05-14T07:26:38.978Z,73.12
2023-05-14T07:27:38.960Z,73.12
2023-05-14T07:28:38.953Z,73.12
2023-05-14T07:29:38.946Z,73.12
2023-05-14T07:30:38.924Z,73.12
2023-05-14T07:31:38.949Z,73.12
2023-05-14T07:32:38.959Z,73.12
2023-05-14T07:33:38.904Z,73.12
2023-05-14T07:34:38.938Z,73.12
2023-05-14T07:35:38.852Z,73.12
2023-05-14T07:36:38.859Z,73.12
2023-05-14T07:37:38.855Z,73.12
2023-05-14T07:38:38.838Z,73.12
2023-05-14T07:39:38.819Z,73.12
2023-05-14T07:40:38.835Z,73.12
2023-05-14T07:41:38.800Z,73.12
2023-05-14T07:42:38.840Z,73.12
2023-05-14T07:43:38.774Z,73.12
2023-05-14T07:44:38.783Z,73.12
2023-05-14T07:45:38.763Z,73.12
2023-05-14T07:46:38.742Z,73.12
2023-05-14T07:47:38.830Z,73.12
2023-05-14T07:48:38.776Z,73.12
2023-05-14T07:49:38.702Z,73.12
2023-05-14T07:50:38.733Z,73.12
2023-05-14T07:51:38.738Z,73.12
2023-05-14T07:52:38.678Z,73.12
2023-05-14T07:53:38.708Z,73.12
2023-05-14T07:54:38.759Z,73.12
2023-05-14T07:55:38.696Z,73.12
2023-05-14T07:56:38.633Z,73.12
2023-05-14T07:57:38.629Z,73.12
2023-05-14T07:58:38.628Z,73.12
2023-05-14T07:59:38.641Z,73.12
2023-05-14T08:00:38.596Z,73.12
2023-05-14T08:01:39.424Z,73.12
2023-05-14T08:02:38.687Z,73.12
2023-05-14T08:03:38.708Z,73.12
2023-05-14T08:04:38.664Z,73.12
2023-05-14T08:05:38.572Z,73.12
2023-05-14T08:06:38.551Z,73.12
2023-05-14T08:07:38.538Z,73.12
2023-05-14T08:08:38.528Z,73.12
2023-05-14T08:09:38.502Z,73.12
2023-05-14T08:10:38.568Z,73.12
2023-05-14T08:11:38.749Z,73.12
2023-05-14T08:12:38.476Z,73.12
2023-05-14T08:13:38.453Z,73.12
2023-05-14T08:14:38.468Z,78.75
2023-05-14T08:15:38.451Z,78.75
2023-05-14T08:16:38.500Z,78.75
2023-05-14T08:17:38.509Z,78.75
2023-05-14T08:18:38.446Z,78.75
2023-05-14T08:19:38.406Z,78.75
2023-05-14T08:20:38.384Z,78.75
2023-05-14T08:21:38.397Z,78.75
2023-05-14T08:22:38.446Z,78.75
2023-05-14T08:23:38.386Z,78.75
2023-05-14T08:24:38.344Z,78.75
2023-05-14T08:25:38.345Z,78.75
2023-05-14T08:26:38.333Z,78.75
2023-05-14T08:27:38.353Z,78.75
2023-05-14T08:28:38.332Z,78.75
2023-05-14T08:29:38.294Z,78.75
2023-05-14T08:30:38.322Z,78.75
2023-05-14T08:31:38.302Z,78.75
2023-05-14T08:32:38.735Z,73.12
2023-05-14T08:33:38.262Z,78.75
2023-05-14T08:34:38.251Z,78.75
2023-05-14T08:35:38.242Z,84.38
2023-05-14T08:36:38.233Z,84.38
2023-05-14T08:37:38.382Z,84.38
2023-05-14T08:38:38.214Z,84.38
2023-05-14T08:39:38.186Z,78.75
2023-05-14T08:40:38.204Z,84.38
2023-05-14T08:41:38.201Z,84.38
2023-05-14T08:42:38.187Z,84.38
2023-05-14T08:43:38.138Z,84.38
2023-05-14T08:44:38.161Z,84.38
2023-05-14T08:45:38.107Z,84.38
2023-05-14T08:46:38.170Z,84.38
2023-05-14T08:47:38.123Z,84.38
2023-05-14T08:48:38.172Z,84.38
2023-05-14T08:49:38.090Z,78.75
2023-05-14T08:50:38.071Z,78.75
2023-05-14T08:51:38.120Z,78.75
2023-05-14T08:52:38.038Z,73.12
2023-05-14T08:53:38.056Z,73.12
2023-05-14T08:54:38.011Z,78.75
2023-05-14T08:55:38.051Z,78.75
2023-05-14T08:56:37.992Z,78.75
2023-05-14T08:57:37.986Z,78.75
2023-05-14T08:58:37.984Z,78.75
2023-05-14T08:59:37.978Z,90.00
2023-05-14T09:00:37.965Z,90.00
2023-05-14T09:01:38.044Z,84.38
2023-05-14T09:02:37.958Z,90.00
2023-05-14T09:03:37.970Z,90.00
2023-05-14T09:04:37.928Z,90.00
2023-05-14T09:05:37.906Z,84.38
2023-05-14T09:06:38.086Z,90.00
2023-05-14T09:07:37.902Z,90.00
2023-05-14T09:08:37.862Z,90.00
2023-05-14T09:09:37.871Z,90.00
2023-05-14T09:10:37.842Z,90.00
2023-05-14T09:11:37.887Z,90.00
2023-05-14T09:12:37.868Z,90.00
2023-05-14T09:13:37.818Z,90.00
2023-05-14T09:14:37.804Z,90.00
2023-05-14T09:15:37.810Z,90.00
2023-05-14T09:16:37.878Z,90.00
2023-05-14T09:17:37.818Z,90.00
2023-05-14T09:18:37.839Z,90.00
2023-05-14T09:19:37.759Z,90.00
2023-05-14T09:20:37.833Z,78.75
2023-05-14T09:21:37.746Z,78.75
2023-05-14T09:22:37.761Z,84.38
2023-05-14T09:23:37.715Z,90.00
2023-05-14T09:24:37.694Z,90.00
2023-05-14T09:25:37.685Z,95.62
2023-05-14T09:26:37.689Z,95.62
2023-05-14T09:27:37.676Z,95.62
2023-05-14T09:28:37.653Z,95.62
2023-05-14T09:29:37.669Z,95.62
2023-05-14T09:30:37.653Z,90.00
2023-05-14T09:31:37.664Z,90.00
2023-05-14T09:32:37.843Z,95.62
2023-05-14T09:33:37.652Z,95.62
2023-05-14T09:34:37.626Z,95.62
2023-05-14T09:35:37.609Z,95.62
2023-05-14T09:36:37.576Z,90.00
2023-05-14T09:37:37.595Z,95.62
2023-05-14T09:38:37.626Z,95.62
2023-05-14T09:39:37.587Z,84.38
2023-05-14T09:40:37.529Z,90.00
2023-05-14T09:41:37.528Z,101.25
2023-05-14T09:42:37.558Z,101.25
2023-05-14T09:43:37.592Z,101.25
2023-05-14T09:44:37.506Z,101.25
2023-05-14T09:45:37.471Z,101.25
2023-05-14T09:46:37.477Z,101.25
2023-05-14T09:47:37.609Z,101.25
2023-05-14T09:48:37.503Z,101.25
2023-05-14T09:49:37.445Z,101.25
2023-05-14T09:50:37.418Z,101.25
2023-05-14T09:51:37.421Z,95.62
2023-05-14T09:52:37.429Z,95.62
2023-05-14T09:53:37.385Z,95.62
2023-05-14T09:54:37.373Z,95.62
2023-05-14T09:55:37.366Z,95.62
2023-05-14T09:56:37.368Z,95.62
2023-05-14T09:57:37.378Z,101.25
2023-05-14T09:58:37.355Z,101.25
2023-05-14T09:59:37.334Z,101.25
2023-05-14T10:00:37.329Z,101.25
2023-05-14T10:01:37.416Z,101.25
2023-05-14T10:02:38.317Z,101.25
2023-05-14T10:03:37.568Z,101.25
2023-05-14T10:04:37.340Z,101.25
2023-05-14T10:05:37.280Z,101.25
2023-05-14T10:06:37.278Z,101.25
2023-05-14T10:07:37.276Z,101.25
2023-05-14T10:08:37.344Z,101.25
2023-05-14T10:09:37.280Z,101.25
2023-05-14T10:10:37.199Z,101.25
2023-05-14T10:11:37.208Z,101.25
2023-05-14T10:12:37.200Z,101.25
2023-05-14T10:13:37.189Z,101.25
2023-05-14T10:14:37.198Z,101.25
2023-05-14T10:15:37.171Z,101.25
2023-05-14T10:16:37.174Z,101.25
2023-05-14T10:17:37.191Z,101.25
2023-05-14T10:18:37.164Z,101.25
2023-05-14T10:19:37.128Z,101.25
2023-05-14T10:20:37.096Z,101.25
2023-05-14T10:21:37.090Z,101.25
2023-05-14T10:22:37.107Z,101.25
2023-05-14T10:23:37.075Z,101.25
2023-05-14T10:24:37.056Z,101.25
2023-05-14T10:25:37.090Z,101.25
2023-05-14T10:26:37.031Z,101.25
2023-05-14T10:27:37.028Z,101.25
2023-05-14T10:28:37.058Z,101.25
2023-05-14T10:29:37.012Z,101.25
2023-05-14T10:30:37.073Z,101.25
2023-05-14T10:31:37.100Z,101.25
2023-05-14T10:32:37.023Z,101.25
2023-05-14T10:33:37.033Z,101.25
2023-05-14T10:34:36.965Z,101.25
2023-05-14T10:35:36.991Z,101.25
2023-05-14T10:36:36.919Z,101.25
2023-05-14T10:37:36.925Z,101.25
2023-05-14T10:38:36.922Z,106.88
2023-05-14T10:39:36.930Z,112.50
2023-05-14T10:40:36.891Z,106.88
2023-05-14T10:41:36.888Z,106.88
2023-05-14T10:42:36.881Z,106.88
2023-05-14T10:43:36.869Z,106.88
2023-05-14T10:44:36.829Z,106.88
2023-05-14T10:45:36.821Z,106.88
2023-05-14T10:46:36.925Z,106.88
2023-05-14T10:47:36.876Z,106.88
2023-05-14T10:48:36.816Z,106.88
2023-05-14T10:49:43.382Z,112.50
2023-05-14T10:50:36.789Z,112.50
2023-05-14T10:51:36.914Z,112.50
2023-05-14T10:52:36.751Z,112.50
2023-05-14T10:53:36.750Z,101.25
2023-05-14T10:54:36.740Z,101.25
2023-05-14T10:55:36.787Z,118.12
2023-05-14T10:56:36.714Z,118.12
2023-05-14T10:57:36.710Z,123.75
2023-05-14T10:58:36.679Z,123.75
2023-05-14T10:59:36.698Z,123.75
2023-05-14T11:00:36.662Z,123.75
2023-05-14T11:01:36.724Z,123.75
2023-05-14T11:02:36.660Z,123.75
2023-05-14T11:03:36.907Z,123.75
2023-05-14T11:04:36.660Z,129.38
2023-05-14T11:05:36.638Z,129.38
2023-05-14T11:06:36.641Z,135.00
2023-05-14T11:07:36.608Z,135.00
2023-05-14T11:08:36.626Z,135.00
2023-05-14T11:09:36.905Z,135.00
2023-05-14T11:10:36.655Z,135.00
2023-05-14T11:11:36.575Z,135.00
2023-05-14T11:12:36.563Z,135.00
2023-05-14T11:13:36.560Z,146.25
2023-05-14T11:14:36.576Z,146.25
2023-05-14T11:15:36.528Z,151.88
2023-05-14T11:16:36.647Z,151.88
2023-05-14T11:17:36.562Z,151.88
2023-05-14T11:18:36.491Z,151.88
2023-05-14T11:19:37.360Z,151.88
2023-05-14T11:20:36.481Z,157.50
2023-05-14T11:21:36.496Z,151.88
2023-05-14T11:22:36.458Z,151.88
2023-05-14T11:23:36.449Z,151.88
2023-05-14T11:24:36.432Z,151.88
2023-05-14T11:25:36.456Z,146.25
2023-05-14T11:26:36.421Z,146.25
2023-05-14T11:27:36.405Z,146.25
2023-05-14T11:28:36.409Z,151.88
2023-05-14T11:29:36.373Z,157.50
2023-05-14T11:30:36.363Z,151.88
2023-05-14T11:31:36.411Z,157.50
2023-05-14T11:32:36.387Z,135.00
2023-05-14T11:33:36.386Z,157.50
2023-05-14T11:34:36.322Z,163.12
2023-05-14T11:35:36.319Z,163.12
2023-05-14T11:36:36.303Z,157.50
2023-05-14T11:37:36.288Z,151.88
2023-05-14T11:38:36.299Z,151.88
2023-05-14T11:39:36.293Z,157.50
2023-05-14T11:40:36.287Z,157.50
2023-05-14T11:41:36.260Z,163.12
2023-05-14T11:42:36.245Z,163.12
2023-05-14T11:43:36.252Z,163.12
2023-05-14T11:44:36.231Z,163.12
2023-05-14T11:45:36.214Z,163.12
2023-05-14T11:46:36.297Z,163.12
2023-05-14T11:47:36.257Z,163.12
2023-05-14T11:48:36.197Z,163.12
2023-05-14T11:49:36.173Z,163.12
2023-05-14T11:50:36.165Z,163.12
2023-05-14T11:51:36.151Z,163.12
2023-05-14T11:52:36.118Z,157.50
2023-05-14T11:53:36.119Z,157.50
2023-05-14T11:54:36.101Z,157.50
2023-05-14T11:55:36.149Z,163.12
2023-05-14T11:56:36.085Z,163.12
2023-05-14T11:57:36.098Z,163.12
2023-05-14T11:58:36.074Z,168.75
2023-05-14T11:59:36.076Z,168.75
2023-05-14T12:00:36.055Z,168.75
2023-05-14T12:01:36.030Z,168.75
2023-05-14T12:02:36.090Z,163.12
2023-05-14T12:03:36.208Z,163.12
2023-05-14T12:04:36.005Z,157.50
2023-05-14T12:05:36.009Z,163.12
2023-05-14T12:06:35.999Z,163.12
2023-05-14T12:07:36.010Z,163.12
2023-05-14T12:08:35.992Z,163.12
2023-05-14T12:09:35.951Z,168.75
2023-05-14T12:10:35.934Z,174.38
2023-05-14T12:11:35.943Z,174.38
2023-05-14T12:12:35.951Z,174.38
2023-05-14T12:13:35.913Z,180.00
2023-05-14T12:14:35.902Z,140.62
2023-05-14T12:15:35.893Z,151.88
2023-05-14T12:16:38.237Z,180.00
2023-05-14T12:17:35.930Z,180.00
2023-05-14T12:18:35.955Z,174.38
2023-05-14T12:19:35.844Z,180.00
2023-05-14T12:20:35.862Z,180.00
2023-05-14T12:21:35.828Z,180.00
2023-05-14T12:22:37.121Z,185.62
2023-05-14T12:23:35.818Z,185.62
2023-05-14T12:24:35.828Z,185.62
2023-05-14T12:25:35.789Z,191.25
2023-05-14T12:26:35.781Z,191.25
2023-05-14T12:27:35.878Z,196.88
2023-05-14T12:28:38.210Z,202.50
2023-05-14T12:29:35.746Z,202.50
2023-05-14T12:30:35.829Z,208.12
2023-05-14T12:31:35.762Z,208.12
2023-05-14T12:32:36.148Z,191.25
2023-05-14T12:33:35.724Z,208.12
2023-05-14T12:34:37.366Z,213.75
2023-05-14T12:35:35.703Z,241.88
2023-05-14T12:36:35.678Z,253.12
2023-05-14T12:37:35.653Z,281.25
2023-05-14T12:38:35.693Z,309.38
2023-05-14T12:39:35.709Z,371.25
2023-05-14T12:40:35.704Z,421.88
2023-05-14T12:41:35.714Z,444.38
2023-05-14T12:42:35.710Z,405.00
2023-05-14T12:43:35.692Z,405.00
2023-05-14T12:44:35.598Z,427.50
2023-05-14T12:45:35.573Z,382.50
2023-05-14T12:46:35.612Z,382.50
2023-05-14T12:47:35.568Z,405.00
2023-05-14T12:48:35.589Z,405.00
2023-05-14T12:49:35.537Z,421.88
2023-05-14T12:50:35.522Z,427.50
2023-05-14T12:51:35.509Z,427.50
2023-05-14T12:52:39.361Z,405.00
2023-05-14T12:53:35.525Z,455.62
2023-05-14T12:54:35.511Z,438.75
2023-05-14T12:55:35.467Z,472.50